To NAV CANADA Home Page Login to a new session Search on AWWS site Feedback and Comments Disclaimer Vers la page française équivalente Tips FAQ What's new on the site To the Forecasts and Observations / NOTAM section To "File a Flight Plan" website Publications and other links Update of the User's profile FIC Telephone Numbers My Weather Data Folder Route Weather Data Regional Weather Data Local Weather Data To the Forecasts and Observations / NOTAM section
Request Generated 10/23/2016 at 22:07:09 UTC . Weather information available at that time is displayed.



METAR CYMA 232200Z 19003KT 160V240 20SM FEW013 FEW020 BKN040 BKN080
M08/M11 A3022 RMK ST1SC1SC3AS1 SLP281=
METAR CYMA 232100Z 33002KT 20SM FEW012 SCT020 BKN042 BKN090 M10/M12
A3023 RMK ST2ST1SC2AS2 SLP287=
METAR CYMA 232000Z 35003KT 20SM FEW012 SCT014 SCT040 BKN090 M10/M13
A3024 RMK ST1ST2SC1AS2 SLP287=

TAF CYMA 231738Z 2318/2406 33005KT P6SM FEW010 SCT020 BKN030 PROB30
2318/2320 BKN020
FM232000 33005KT P6SM FEW020 SCT040
Your time UTC time
Weather data provided by Environment Canada and NAV CANADA